Time;durP1;ratioP1;P1;durP2;ratioP2;P2;SDS_P1;SDS_P2;PMS_P1;PMS_P2;Temp;Humidity;BMP_temperature;BMP_pressure;BME280_temperature;BME280_humidity;BME280_pressure;Samples;Min_cycle;Max_cycle;Signal;HPM_P1;HPM_P2
2022/07/08 00:03:41;;;;;;;1.45;0.20;;;15.00;99.90;;;;;;10196473;29;20154;-89
2022/07/08 00:08:44;;;;;;;4.13;0.50;;;14.90;99.90;;;;;;10164498;29;20111;-89
2022/07/08 00:13:46;;;;;;;4.47;0.28;;;14.90;99.90;;;;;;10184719;29;20059;-89
2022/07/08 00:18:48;;;;;;;2.47;0.20;;;14.80;99.90;;;;;;10180866;29;20075;-89
2022/07/08 00:23:50;;;;;;;1.05;0.30;;;14.70;99.90;;;;;;10176481;29;20521;-89
2022/07/08 00:28:52;;;;;;;3.83;0.25;;;14.60;99.90;;;;;;10179601;29;20644;-89
2022/07/08 00:33:53;;;;;;;2.63;0.17;;;14.60;99.90;;;;;;10178348;29;20056;-87
2022/07/08 00:38:55;;;;;;;3.33;0.30;;;14.50;99.90;;;;;;10198211;29;20078;-87
2022/07/08 00:43:57;;;;;;;5.80;0.30;;;14.40;99.90;;;;;;10181652;29;20062;-87
2022/07/08 00:48:59;;;;;;;3.85;0.35;;;14.30;99.90;;;;;;10179293;29;20435;-87
2022/07/08 00:54:00;;;;;;;0.73;0.25;;;14.30;99.90;;;;;;10194592;29;20060;-87
2022/07/08 00:59:02;;;;;;;3.97;0.50;;;14.00;99.90;;;;;;10194888;29;20402;-86
2022/07/08 01:04:05;;;;;;;1.63;0.50;;;14.20;99.90;;;;;;10179294;29;20055;-87
2022/07/08 01:09:09;;;;;;;2.38;0.47;;;14.10;99.90;;;;;;10178326;29;20052;-87
2022/07/08 01:14:12;;;;;;;1.98;0.80;;;14.10;99.90;;;;;;10161901;29;20514;-87
2022/07/08 01:19:14;;;;;;;3.17;0.50;;;14.10;99.90;;;;;;10177062;29;20094;-87
2022/07/08 01:24:16;;;;;;;0.60;0.28;;;14.00;99.90;;;;;;10193775;29;20407;-87
2022/07/08 01:29:18;;;;;;;1.65;0.30;;;14.10;99.90;;;;;;10178248;29;20066;-87
2022/07/08 01:34:21;;;;;;;3.72;0.40;;;13.80;99.90;;;;;;10174573;29;20056;-87
2022/07/08 01:39:23;;;;;;;4.13;0.35;;;13.70;99.90;;;;;;10189604;29;20113;-87
2022/07/08 01:44:24;;;;;;;3.72;0.30;;;13.60;99.90;;;;;;10191956;29;20118;-86
2022/07/08 01:49:26;;;;;;;7.25;0.50;;;13.60;99.90;;;;;;10176546;29;20105;-86
2022/07/08 01:54:28;;;;;;;2.50;0.20;;;13.60;99.90;;;;;;10163922;29;20066;-86
2022/07/08 01:59:30;;;;;;;4.13;0.38;;;13.60;99.90;;;;;;10160535;29;20043;-86
2022/07/08 02:04:32;;;;;;;8.02;0.32;;;13.50;99.90;;;;;;10163007;29;20056;-86
2022/07/08 02:09:35;;;;;;;5.55;0.30;;;13.50;99.90;;;;;;10177684;29;20511;-86
2022/07/08 02:14:36;;;;;;;5.32;0.30;;;13.50;99.90;;;;;;10174890;29;20490;-86
2022/07/08 02:19:38;;;;;;;3.60;0.30;;;13.50;99.90;;;;;;10192746;29;20183;-86
2022/07/08 02:24:40;;;;;;;5.03;0.30;;;13.40;99.90;;;;;;10174383;29;20056;-86
2022/07/08 02:29:42;;;;;;;3.42;0.30;;;13.30;99.90;;;;;;10175273;29;20178;-86
2022/07/08 02:34:44;;;;;;;7.50;0.73;;;13.30;99.90;;;;;;10177360;29;20066;-86
2022/07/08 02:39:46;;;;;;;3.00;0.75;;;13.20;99.90;;;;;;10175231;29;20533;-86
2022/07/08 02:44:48;;;;;;;3.70;0.30;;;13.20;99.90;;;;;;10192397;29;20403;-87
2022/07/08 02:49:50;;;;;;;3.45;0.30;;;13.20;99.90;;;;;;10176232;29;20155;-88
2022/07/08 02:54:51;;;;;;;3.55;0.40;;;13.00;99.90;;;;;;10177332;29;20068;-86
2022/07/08 02:59:53;;;;;;;4.28;0.30;;;13.00;99.90;;;;;;10173517;29;20063;-87
2022/07/08 03:04:55;;;;;;;3.15;0.47;;;12.90;99.90;;;;;;10162775;29;20138;-87
2022/07/08 03:09:57;;;;;;;3.08;0.47;;;12.90;99.90;;;;;;10160385;29;20404;-88
2022/07/08 03:14:59;;;;;;;5.30;0.40;;;13.00;99.90;;;;;;10158910;29;20087;-87
2022/07/08 03:20:01;;;;;;;0.70;0.28;;;13.00;99.90;;;;;;10176706;29;20119;-87
2022/07/08 03:25:03;;;;;;;4.05;0.32;;;13.10;99.90;;;;;;10177065;29;20115;-86
2022/07/08 03:30:06;;;;;;;1.15;0.40;;;13.20;99.90;;;;;;10202033;29;20087;-85
2022/07/08 03:35:08;;;;;;;2.25;0.45;;;13.30;99.90;;;;;;10214670;29;20066;-86
2022/07/08 03:45:32;;;;;;;2.92;0.30;;;13.60;99.90;;;;;;10205462;29;20059;-86
2022/07/08 03:50:34;;;;;;;7.03;0.88;;;13.70;99.90;;;;;;10203052;29;20047;-85
2022/07/08 03:55:36;;;;;;;6.75;0.30;;;13.80;99.90;;;;;;10206566;29;20063;-85
2022/07/08 04:00:38;;;;;;;4.63;0.45;;;14.00;99.90;;;;;;10192565;29;20083;-85
2022/07/08 04:05:40;;;;;;;3.63;0.22;;;14.00;99.90;;;;;;10193416;29;20055;-85
2022/07/08 04:10:42;;;;;;;2.67;0.30;;;14.10;99.90;;;;;;10209116;29;20070;-85
2022/07/08 04:15:43;;;;;;;0.82;0.20;;;14.20;99.90;;;;;;10206758;29;20056;-85
2022/07/08 04:20:45;;;;;;;1.40;0.20;;;14.30;99.90;;;;;;10186945;29;20067;-85
2022/07/08 04:25:47;;;;;;;0.88;0.30;;;14.30;99.90;;;;;;10185596;29;20069;-85
2022/07/08 04:30:49;;;;;;;1.42;0.25;;;14.40;99.90;;;;;;10171681;29;20059;-85
2022/07/08 04:35:51;;;;;;;8.98;0.35;;;14.50;99.90;;;;;;10187556;29;20059;-85
2022/07/08 04:40:53;;;;;;;2.55;0.40;;;14.50;99.90;;;;;;10195293;29;20154;-85
2022/07/08 04:45:55;;;;;;;5.25;0.20;;;14.60;99.90;;;;;;10194155;29;20052;-86
2022/07/08 04:50:58;;;;;;;5.50;0.32;;;14.80;99.90;;;;;;10196412;29;20091;-85
2022/07/08 04:56:00;;;;;;;1.17;0.35;;;14.80;99.90;;;;;;10181436;29;20056;-88
2022/07/08 05:01:02;;;;;;;2.88;0.20;;;14.90;99.90;;;;;;10180473;29;20142;-88
2022/07/08 05:06:04;;;;;;;2.72;0.20;;;15.00;99.90;;;;;;10182418;29;20052;-87
2022/07/08 05:11:05;;;;;;;0.57;0.20;;;15.00;99.90;;;;;;10166540;29;20055;-88
2022/07/08 05:16:07;;;;;;;5.28;0.20;;;15.00;99.90;;;;;;10182280;29;20452;-87
2022/07/08 05:21:09;;;;;;;1.70;0.10;;;15.00;99.90;;;;;;10190992;29;20135;-89
2022/07/08 05:26:11;;;;;;;2.42;0.13;;;15.00;99.90;;;;;;10164455;29;20111;-88
2022/07/08 05:31:13;;;;;;;5.10;0.20;;;15.10;99.90;;;;;;10181413;29;20063;-88
2022/07/08 05:36:15;;;;;;;4.75;0.30;;;15.20;99.90;;;;;;10183735;29;22225;-87
2022/07/08 05:41:16;;;;;;;1.83;0.20;;;15.30;99.90;;;;;;10177660;29;20056;-88
2022/07/08 05:46:18;;;;;;;3.95;0.20;;;15.40;99.90;;;;;;10178293;29;20088;-86
2022/07/08 05:51:20;;;;;;;2.80;0.13;;;15.50;99.90;;;;;;10171327;29;20055;-87
2022/07/08 05:56:22;;;;;;;2.40;0.28;;;15.50;99.90;;;;;;10193028;29;20403;-87
2022/07/08 06:01:24;;;;;;;2.28;0.13;;;15.50;99.90;;;;;;10173012;29;20059;-87
2022/07/08 06:06:26;;;;;;;1.17;0.17;;;15.50;99.90;;;;;;10176568;29;20056;-88
2022/07/08 06:11:29;;;;;;;2.63;0.10;;;15.60;99.90;;;;;;10190283;29;20060;-88
2022/07/08 06:16:31;;;;;;;4.05;0.40;;;15.80;99.90;;;;;;10178788;29;21844;-87
2022/07/08 06:21:33;;;;;;;1.55;0.40;;;15.80;99.90;;;;;;10163581;29;20118;-87
2022/07/08 06:26:35;;;;;;;2.67;0.10;;;16.00;99.90;;;;;;10165429;29;20090;-86
2022/07/08 06:31:38;;;;;;;3.10;0.10;;;15.80;99.90;;;;;;10185234;29;20123;-87
2022/07/08 06:36:40;;;;;;;1.23;0.10;;;16.10;99.90;;;;;;10167757;29;20059;-89
2022/07/08 06:41:42;;;;;;;2.45;0.50;;;16.20;99.90;;;;;;10158569;29;20403;-87
2022/07/08 06:46:43;;;;;;;0.93;0.10;;;16.30;99.90;;;;;;10170479;29;20121;-87
2022/07/08 06:51:45;;;;;;;4.43;0.20;;;16.20;99.90;;;;;;10170016;29;20086;-87
2022/07/08 06:56:47;;;;;;;4.82;0.20;;;16.20;99.90;;;;;;10177637;29;20098;-86
2022/07/08 07:01:49;;;;;;;1.25;0.17;;;16.20;99.90;;;;;;10189819;29;20043;-86
2022/07/08 07:06:52;;;;;;;3.45;0.20;;;16.20;99.90;;;;;;10197528;29;20051;-86
2022/07/08 07:11:53;;;;;;;2.55;0.20;;;16.40;99.60;;;;;;10194523;29;20411;-87
2022/07/08 07:16:55;;;;;;;1.73;0.20;;;16.60;99.00;;;;;;10178152;29;20061;-87
2022/07/08 07:21:57;;;;;;;2.38;0.20;;;16.80;99.20;;;;;;10162600;29;20058;-87
2022/07/08 07:26:59;;;;;;;2.17;0.17;;;16.70;98.50;;;;;;10180551;29;20063;-87
2022/07/08 07:32:01;;;;;;;3.17;0.25;;;17.00;98.10;;;;;;10178274;29;20086;-87
2022/07/08 07:37:03;;;;;;;4.10;0.20;;;17.10;98.10;;;;;;10167314;29;20059;-87
2022/07/08 07:42:05;;;;;;;5.50;0.20;;;17.10;97.40;;;;;;10181075;29;20051;-87
2022/07/08 07:47:07;;;;;;;3.60;0.10;;;17.10;97.50;;;;;;10181824;29;20569;-87
2022/07/08 07:52:09;;;;;;;2.28;0.10;;;17.00;97.80;;;;;;10177998;29;20056;-87
2022/07/08 07:57:11;;;;;;;2.38;0.10;;;16.90;97.40;;;;;;10163843;29;20111;-87
2022/07/08 08:02:13;;;;;;;2.53;0.20;;;16.50;97.90;;;;;;10159054;29;20483;-86
2022/07/08 08:07:14;;;;;;;1.27;0.20;;;16.80;98.20;;;;;;10160487;29;20044;-87
2022/07/08 08:12:16;;;;;;;3.60;0.25;;;16.80;98.10;;;;;;10194578;29;20075;-87
2022/07/08 08:17:21;;;;;;;1.58;0.10;;;17.00;98.00;;;;;;10177942;29;20051;-87
2022/07/08 08:22:22;;;;;;;1.48;0.10;;;17.20;97.40;;;;;;10181552;29;20052;-87
2022/07/08 08:27:24;;;;;;;2.47;0.20;;;17.30;97.40;;;;;;10176434;29;20533;-88
2022/07/08 08:32:26;;;;;;;2.53;0.30;;;17.40;96.60;;;;;;10182627;29;20056;-88
2022/07/08 08:37:28;;;;;;;6.20;0.40;;;17.60;96.80;;;;;;10164652;29;20085;-87
2022/07/08 08:42:31;;;;;;;1.40;0.10;;;17.90;96.40;;;;;;10194392;29;20060;-87
2022/07/08 08:47:36;;;;;;;1.42;0.15;;;17.80;96.30;;;;;;10176955;29;20051;-87
2022/07/08 08:52:38;;;;;;;3.22;0.17;;;17.60;96.30;;;;;;10177695;29;20082;-87
2022/07/08 08:57:40;;;;;;;4.25;0.20;;;17.50;96.40;;;;;;10161802;29;20134;-86
2022/07/08 09:02:42;;;;;;;1.52;0.20;;;17.50;96.30;;;;;;10175442;29;20056;-86
2022/07/08 09:07:44;;;;;;;2.30;0.20;;;17.70;96.20;;;;;;10178606;29;20892;-86
2022/07/08 09:13:10;;;;;;;3.60;0.20;;;17.70;96.20;;;;;;10162423;29;20059;-86
2022/07/08 09:18:14;;;;;;;2.28;0.20;;;18.00;95.80;;;;;;10160314;29;20517;-86
2022/07/08 09:23:23;;;;;;;2.20;0.10;;;18.40;95.90;;;;;;10175686;29;20048;-87
2022/07/08 09:28:33;;;;;;;1.73;0.25;;;18.70;95.00;;;;;;10186847;29;20143;-86
2022/07/08 09:33:36;;;;;;;1.85;0.63;;;19.00;93.70;;;;;;10189889;29;20048;-87
2022/07/08 09:38:39;;;;;;;4.43;0.43;;;19.10;94.00;;;;;;10158644;29;20802;-86
2022/07/08 09:43:48;;;;;;;2.13;0.20;;;19.30;92.80;;;;;;10175855;29;20068;-87
2022/07/08 09:48:50;;;;;;;1.90;0.20;;;18.90;93.20;;;;;;10194050;29;20118;-88
2022/07/08 09:54:09;;;;;;;3.38;0.40;;;19.10;94.10;;;;;;10167286;29;20513;-87
2022/07/08 09:59:11;;;;;;;0.88;0.10;;;18.90;93.70;;;;;;10190191;29;20499;-87
2022/07/08 10:04:13;;;;;;;2.08;0.20;;;19.10;94.60;;;;;;10193118;29;20558;-87
2022/07/08 10:09:15;;;;;;;0.63;0.25;;;19.20;94.00;;;;;;10175532;29;20060;-88
2022/07/08 10:14:18;;;;;;;3.45;0.20;;;19.60;92.30;;;;;;10173627;29;20123;-88
2022/07/08 10:19:27;;;;;;;3.53;0.28;;;19.90;92.90;;;;;;10175542;29;20174;-87
2022/07/08 10:24:39;;;;;;;1.70;0.20;;;19.80;91.10;;;;;;10180018;29;20147;-88
2022/07/08 10:29:41;;;;;;;5.05;0.25;;;20.10;90.70;;;;;;10160631;29;20070;-88
2022/07/08 10:34:43;;;;;;;2.55;0.17;;;20.00;90.70;;;;;;10192260;29;20127;-89
2022/07/08 10:39:47;;;;;;;2.35;0.30;;;20.10;90.40;;;;;;10183577;29;20051;-88
2022/07/08 10:44:49;;;;;;;6.35;0.35;;;20.40;90.10;;;;;;10185132;29;20055;-88
2022/07/08 10:49:51;;;;;;;3.78;0.30;;;20.60;90.20;;;;;;10184793;29;20070;-88
2022/07/08 10:55:13;;;;;;;1.23;0.43;;;21.10;88.60;;;;;;10188224;29;20159;-88
2022/07/08 11:00:15;;;;;;;2.65;0.20;;;21.90;87.50;;;;;;10179509;29;20052;-89
2022/07/08 11:05:40;;;;;;;2.92;0.30;;;22.20;84.20;;;;;;10148433;29;20052;-89
2022/07/08 11:10:43;;;;;;;4.00;0.20;;;22.10;81.10;;;;;;10135643;29;20660;-87
2022/07/08 11:15:52;;;;;;;3.75;0.35;;;22.10;82.10;;;;;;10171997;29;20130;-88
2022/07/08 11:21:01;;;;;;;3.38;0.40;;;22.60;85.10;;;;;;10187052;29;20067;-88
2022/07/08 11:26:03;;;;;;;4.13;0.40;;;23.00;83.40;;;;;;10181869;29;20075;-89
2022/07/08 11:31:04;;;;;;;1.70;0.32;;;23.10;79.80;;;;;;10179604;29;20468;-89
2022/07/08 11:36:15;;;;;;;4.10;0.35;;;22.90;78.50;;;;;;10192334;29;20088;-89
2022/07/08 11:41:20;;;;;;;1.02;0.22;;;22.30;80.50;;;;;;10169324;29;20057;-88
2022/07/08 11:46:23;;;;;;;2.03;0.17;;;23.00;77.10;;;;;;10152346;29;20072;-89
2022/07/08 11:51:25;;;;;;;0.63;0.30;;;22.90;75.00;;;;;;10140738;29;20545;-88
2022/07/08 11:56:26;;;;;;;1.27;0.20;;;23.80;77.70;;;;;;10156017;29;20072;-89
2022/07/08 12:01:30;;;;;;;2.65;0.20;;;23.40;74.70;;;;;;10178147;29;20066;-90
2022/07/08 12:06:32;;;;;;;0.43;0.10;;;23.90;73.50;;;;;;10181627;29;20520;-89
2022/07/08 12:11:43;;;;;;;0.80;0.30;;;24.20;71.00;;;;;;10179356;29;20060;-89
2022/07/08 12:16:51;;;;;;;2.58;0.50;;;24.80;74.70;;;;;;10152793;29;20060;-89
2022/07/08 12:21:53;;;;;;;1.27;0.10;;;24.60;71.80;;;;;;10162519;29;20391;-90
2022/07/08 12:27:00;;;;;;;2.47;0.82;;;24.10;72.40;;;;;;10179211;29;20067;-90
2022/07/08 12:32:12;;;;;;;1.33;0.20;;;24.00;72.40;;;;;;10176857;29;20055;-90
2022/07/08 12:37:14;;;;;;;2.40;0.20;;;24.30;71.70;;;;;;10174946;29;20087;-89
2022/07/08 12:42:26;;;;;;;4.13;0.30;;;24.10;72.50;;;;;;10182228;29;20055;-90
2022/07/08 12:47:28;;;;;;;1.05;0.20;;;24.40;71.10;;;;;;10177237;29;20160;-89
2022/07/08 12:52:30;;;;;;;0.40;0.20;;;24.90;71.70;;;;;;10179569;29;20056;-89
2022/07/08 12:57:32;;;;;;;3.83;0.20;;;24.60;71.40;;;;;;10177843;29;20426;-89
2022/07/08 13:02:34;;;;;;;2.83;0.28;;;24.80;70.30;;;;;;10196000;29;20562;-90
2022/07/08 13:07:36;;;;;;;2.70;0.22;;;24.60;69.90;;;;;;10177979;29;20090;-90
2022/07/08 13:12:38;;;;;;;4.20;0.30;;;25.00;69.60;;;;;;10179459;29;20051;-90
2022/07/08 13:17:40;;;;;;;1.92;0.20;;;24.70;68.40;;;;;;10192293;29;20055;-88
2022/07/08 13:22:43;;;;;;;0.20;0.20;;;24.90;68.70;;;;;;10181917;29;20060;-89
2022/07/08 13:27:45;;;;;;;1.33;0.40;;;25.30;69.70;;;;;;10176753;29;20062;-89
2022/07/08 13:32:46;;;;;;;3.45;0.30;;;25.90;68.20;;;;;;10176586;29;20059;-87
2022/07/08 13:37:48;;;;;;;1.90;0.20;;;26.50;67.20;;;;;;10180124;29;20078;-88
2022/07/08 13:42:50;;;;;;;1.20;0.30;;;26.60;66.00;;;;;;10191879;29;20095;-88
2022/07/08 13:47:52;;;;;;;3.10;0.45;;;26.70;66.90;;;;;;10163965;29;20055;-88
2022/07/08 13:52:54;;;;;;;3.70;0.40;;;25.80;66.60;;;;;;10167404;29;20043;-88
2022/07/08 13:57:56;;;;;;;1.73;0.20;;;26.00;67.00;;;;;;10176522;29;20118;-88
2022/07/08 14:02:58;;;;;;;1.05;0.20;;;26.60;65.80;;;;;;10175509;29;20122;-88
2022/07/08 14:08:00;;;;;;;0.65;0.20;;;26.80;65.00;;;;;;10165134;29;20109;-88
2022/07/08 14:13:22;;;;;;;1.75;0.20;;;27.30;64.40;;;;;;10191273;29;20071;-87
2022/07/08 14:18:23;;;;;;;2.33;0.15;;;27.90;63.30;;;;;;10175218;29;20060;-89
2022/07/08 14:23:25;;;;;;;1.95;0.10;;;27.80;62.50;;;;;;10170044;29;20088;-88
2022/07/08 14:28:27;;;;;;;1.13;0.20;;;28.10;61.50;;;;;;10193003;29;20134;-88
2022/07/08 14:33:29;;;;;;;1.60;0.10;;;27.60;61.20;;;;;;10194705;29;20087;-89
2022/07/08 14:38:31;;;;;;;0.80;0.20;;;27.00;62.60;;;;;;10193619;29;20463;-88
2022/07/08 14:43:33;;;;;;;2.55;0.20;;;27.60;63.00;;;;;;10198915;29;21104;-89
2022/07/08 14:48:36;;;;;;;0.45;0.10;;;27.70;63.00;;;;;;10179031;29;20144;-89
2022/07/08 14:53:40;;;;;;;1.58;0.20;;;28.00;61.30;;;;;;10180738;29;20044;-89
2022/07/08 14:58:42;;;;;;;1.02;0.10;;;27.90;61.60;;;;;;10205911;29;20062;-86
2022/07/08 15:03:44;;;;;;;1.55;0.10;;;28.50;60.80;;;;;;10195058;29;20123;-86
2022/07/08 15:08:45;;;;;;;1.30;0.20;;;28.80;61.00;;;;;;10194705;29;20115;-87
2022/07/08 15:13:47;;;;;;;1.52;0.10;;;28.10;61.30;;;;;;10188004;29;20055;-89
2022/07/08 15:18:49;;;;;;;1.00;0.20;;;28.20;60.80;;;;;;10182648;29;20043;-89
2022/07/08 15:23:51;;;;;;;0.82;0.10;;;27.80;61.10;;;;;;10221707;28;20060;-89
2022/07/08 15:28:54;;;;;;;2.10;0.20;;;27.10;62.50;;;;;;10191053;29;20055;-88
2022/07/08 15:33:56;;;;;;;2.70;0.20;;;26.70;63.70;;;;;;10203438;29;20051;-89
2022/07/08 15:38:58;;;;;;;0.88;0.20;;;26.90;62.90;;;;;;10188196;29;20058;-89
2022/07/08 15:43:59;;;;;;;1.95;0.17;;;26.30;64.50;;;;;;10185340;29;20039;-88
2022/07/08 15:49:21;;;;;;;3.35;0.20;;;26.30;64.60;;;;;;10199683;29;20051;-89
2022/07/08 15:54:23;;;;;;;1.50;0.10;;;26.20;66.00;;;;;;10188861;29;20098;-88
2022/07/08 15:59:25;;;;;;;1.08;0.20;;;26.00;66.40;;;;;;10206432;29;20051;-88
2022/07/08 16:04:27;;;;;;;1.75;0.20;;;26.00;67.20;;;;;;10188167;29;20064;-89
2022/07/08 16:09:30;;;;;;;0.38;0.13;;;25.80;66.40;;;;;;10189359;29;20569;-89
2022/07/08 16:14:31;;;;;;;0.38;0.15;;;25.60;67.10;;;;;;10175565;29;20249;-88
2022/07/08 16:19:33;;;;;;;1.10;0.20;;;25.60;68.20;;;;;;10164096;29;20052;-89
2022/07/08 16:24:35;;;;;;;5.65;0.52;;;25.30;68.30;;;;;;10173246;29;20057;-89
2022/07/08 16:29:37;;;;;;;1.35;0.20;;;25.10;69.00;;;;;;10190055;29;20487;-88
2022/07/08 16:34:39;;;;;;;2.58;0.13;;;25.10;69.70;;;;;;10181975;29;20044;-89
2022/07/08 16:39:41;;;;;;;0.43;0.20;;;25.20;69.30;;;;;;10194379;29;20368;-88
2022/07/08 16:44:42;;;;;;;2.47;0.10;;;25.00;70.00;;;;;;10195253;29;20198;-88
2022/07/08 16:49:44;;;;;;;2.85;0.30;;;25.20;70.10;;;;;;10204346;29;20048;-88
2022/07/08 16:54:46;;;;;;;3.10;0.20;;;25.20;70.20;;;;;;10185732;29;20305;-88
2022/07/08 16:59:48;;;;;;;3.13;0.30;;;24.90;70.80;;;;;;10194457;29;20083;-89
2022/07/08 17:04:50;;;;;;;0.88;0.20;;;24.90;71.50;;;;;;10182260;29;20119;-87
2022/07/08 17:09:52;;;;;;;3.25;0.30;;;24.50;72.10;;;;;;10184232;29;20063;-89
2022/07/08 17:14:54;;;;;;;1.13;0.20;;;24.40;72.90;;;;;;10177177;29;20054;-88
2022/07/08 17:19:56;;;;;;;0.40;0.20;;;24.30;72.80;;;;;;10187627;29;20056;-89
2022/07/08 17:24:58;;;;;;;1.05;0.20;;;24.50;73.60;;;;;;10172894;29;20052;-88
2022/07/08 17:30:00;;;;;;;0.43;0.10;;;24.60;72.90;;;;;;10191642;29;20047;-89
2022/07/08 17:35:03;;;;;;;3.58;0.20;;;24.60;73.20;;;;;;10178458;29;20064;-89
2022/07/08 17:40:06;;;;;;;0.30;0.10;;;24.60;73.60;;;;;;10183177;29;20080;-88
2022/07/08 17:45:08;;;;;;;3.50;0.20;;;24.40;74.20;;;;;;10178045;29;20067;-88
2022/07/08 17:50:10;;;;;;;1.50;0.20;;;24.30;74.60;;;;;;10169536;29;20462;-88
2022/07/08 17:55:13;;;;;;;1.90;0.20;;;24.30;74.80;;;;;;10175660;29;20147;-89
2022/07/08 18:00:15;;;;;;;0.70;0.20;;;24.20;75.40;;;;;;10192201;29;20067;-88
2022/07/08 18:05:17;;;;;;;2.78;0.30;;;24.20;76.70;;;;;;10171468;29;20120;-88
2022/07/08 18:10:19;;;;;;;0.77;0.25;;;24.00;77.20;;;;;;10178031;29;20053;-88
2022/07/08 18:15:21;;;;;;;0.50;0.10;;;23.90;77.50;;;;;;10168916;29;20127;-88
2022/07/08 18:20:24;;;;;;;1.00;0.40;;;23.80;78.20;;;;;;10174390;29;20085;-88
2022/07/08 18:25:26;;;;;;;2.15;0.10;;;23.90;78.40;;;;;;10162290;29;20060;-88
2022/07/08 18:30:28;;;;;;;2.22;0.43;;;23.70;78.40;;;;;;10173777;29;20056;-89
2022/07/08 18:35:30;;;;;;;0.57;0.20;;;23.60;79.40;;;;;;10170955;29;20060;-88
2022/07/08 18:40:32;;;;;;;3.58;0.20;;;23.50;79.10;;;;;;10165393;29;20064;-88
2022/07/08 18:45:35;;;;;;;0.75;0.10;;;23.40;80.00;;;;;;10172031;29;20133;-88
2022/07/08 18:50:38;;;;;;;0.88;0.20;;;23.30;80.40;;;;;;10175059;29;20052;-88
2022/07/08 18:55:40;;;;;;;7.50;0.25;;;23.30;81.20;;;;;;10161932;29;20056;-88
2022/07/08 19:00:44;;;;;;;0.82;0.20;;;23.20;81.80;;;;;;10166282;29;20066;-87
2022/07/08 19:05:46;;;;;;;2.05;0.20;;;23.30;82.80;;;;;;10170141;29;20056;-88
2022/07/08 19:10:51;;;;;;;1.00;0.10;;;23.10;83.30;;;;;;10181277;29;20072;-88
2022/07/08 19:15:53;;;;;;;0.55;0.03;;;23.10;83.70;;;;;;10187415;29;20047;-88
2022/07/08 19:20:55;;;;;;;0.30;0.10;;;22.90;84.50;;;;;;10159517;29;20499;-88
2022/07/08 19:25:57;;;;;;;0.90;0.15;;;22.80;85.10;;;;;;10184105;29;20064;-88
2022/07/08 19:30:59;;;;;;;0.95;0.30;;;22.70;86.20;;;;;;10162392;29;20070;-88
2022/07/08 19:36:02;;;;;;;2.47;0.40;;;22.50;87.10;;;;;;10172712;29;20056;-88
2022/07/08 19:41:08;;;;;;;2.17;0.55;;;22.40;88.40;;;;;;10110420;29;20055;-88
2022/07/08 19:46:11;;;;;;;1.60;0.40;;;22.20;89.70;;;;;;10144722;29;20052;-87
2022/07/08 19:51:14;;;;;;;3.03;0.40;;;22.10;90.50;;;;;;10142401;29;20084;-87
2022/07/08 19:56:21;;;;;;;2.15;0.35;;;21.90;90.90;;;;;;10124623;29;20119;-87
2022/07/08 20:01:30;;;;;;;2.00;0.20;;;21.70;91.30;;;;;;10129958;29;20108;-87
2022/07/08 20:06:34;;;;;;;1.00;0.20;;;21.60;91.70;;;;;;10119498;29;20094;-88
2022/07/08 20:11:36;;;;;;;2.40;0.20;;;21.50;92.30;;;;;;10169316;29;20111;-85
2022/07/08 20:16:39;;;;;;;0.77;0.10;;;21.40;92.70;;;;;;10157137;29;20056;-85
2022/07/08 20:21:41;;;;;;;0.30;0.20;;;21.20;93.30;;;;;;10152041;29;20063;-85
2022/07/08 20:26:43;;;;;;;1.58;0.20;;;21.10;93.80;;;;;;10171947;29;20096;-85
2022/07/08 20:31:45;;;;;;;0.35;0.10;;;20.90;94.30;;;;;;10156535;29;20055;-85
2022/07/08 20:36:50;;;;;;;4.20;0.30;;;20.80;94.80;;;;;;10149417;29;20063;-85
2022/07/08 20:47:13;;;;;;;1.20;0.20;;;20.50;96.00;;;;;;10151978;29;20062;-84
2022/07/08 20:52:15;;;;;;;2.85;0.20;;;20.40;96.60;;;;;;10145697;29;20064;-85
2022/07/08 20:57:17;;;;;;;2.50;0.20;;;20.20;97.20;;;;;;10158190;29;20052;-84
2022/07/08 21:02:19;;;;;;;1.73;0.20;;;20.00;98.00;;;;;;10163801;29;20084;-85
2022/07/08 21:07:21;;;;;;;1.10;0.20;;;19.90;98.60;;;;;;10172376;29;20067;-86
2022/07/08 21:12:23;;;;;;;3.13;0.20;;;19.80;99.20;;;;;;10181595;29;20050;-85
2022/07/08 21:17:26;;;;;;;2.42;0.20;;;19.70;99.80;;;;;;10183017;29;20066;-86
2022/07/08 21:22:28;;;;;;;0.22;0.10;;;19.50;99.90;;;;;;10179822;29;20066;-84
2022/07/08 21:27:30;;;;;;;3.50;0.20;;;19.50;99.90;;;;;;10165202;29;20059;-85
2022/07/08 21:32:32;;;;;;;1.15;0.20;;;19.40;99.90;;;;;;10177920;29;20492;-84
2022/07/08 21:37:36;;;;;;;2.03;0.20;;;19.30;99.90;;;;;;10194629;29;20063;-85
2022/07/08 21:42:38;;;;;;;3.28;0.22;;;19.10;99.90;;;;;;10181983;29;20115;-86
2022/07/08 21:47:40;;;;;;;0.90;0.30;;;19.10;99.90;;;;;;10182855;29;20529;-86
2022/07/08 21:52:42;;;;;;;3.30;0.30;;;19.00;99.90;;;;;;10211319;29;20107;-85
2022/07/08 21:57:44;;;;;;;1.60;0.22;;;19.00;99.90;;;;;;10185738;29;20065;-86
2022/07/08 22:02:46;;;;;;;1.52;0.30;;;19.00;99.90;;;;;;10191922;29;20056;-85
2022/07/08 22:07:48;;;;;;;1.17;0.20;;;18.90;99.90;;;;;;10206446;29;20059;-83
2022/07/08 22:12:50;;;;;;;5.00;0.30;;;18.80;99.90;;;;;;10127109;29;20072;-84
2022/07/08 22:17:54;;;;;;;0.80;0.30;;;18.70;99.90;;;;;;10193691;29;20122;-84
2022/07/08 22:22:56;;;;;;;3.58;0.40;;;18.70;99.90;;;;;;10191616;29;20043;-84
2022/07/08 22:27:58;;;;;;;1.15;0.30;;;18.60;99.90;;;;;;10186237;29;20107;-85
2022/07/08 22:33:00;;;;;;;1.52;0.43;;;18.50;99.90;;;;;;10145123;29;20155;-87
2022/07/08 22:38:02;;;;;;;0.63;0.30;;;18.40;99.90;;;;;;10184611;29;20053;-86
2022/07/08 22:43:04;;;;;;;1.33;0.40;;;18.40;99.90;;;;;;10173080;29;20046;-87
2022/07/08 22:48:06;;;;;;;0.60;0.30;;;18.20;99.90;;;;;;10205251;29;20056;-87
2022/07/08 22:53:08;;;;;;;1.40;0.28;;;18.10;99.90;;;;;;10185615;29;20064;-86
2022/07/08 22:58:10;;;;;;;3.25;0.50;;;18.10;99.90;;;;;;10188942;29;20087;-86
2022/07/08 23:03:12;;;;;;;3.67;0.43;;;17.90;99.90;;;;;;10168956;29;20060;-87
2022/07/08 23:08:14;;;;;;;1.77;0.35;;;17.90;99.90;;;;;;10143122;29;20468;-87
2022/07/08 23:13:16;;;;;;;1.50;0.40;;;17.80;99.90;;;;;;10160488;29;20052;-87
2022/07/08 23:18:18;;;;;;;0.80;0.20;;;17.70;99.90;;;;;;10173451;29;20147;-87
2022/07/08 23:23:20;;;;;;;1.55;0.32;;;17.70;99.90;;;;;;10129398;29;20112;-86
2022/07/08 23:28:22;;;;;;;6.72;0.30;;;17.50;99.90;;;;;;10172611;29;21515;-86
2022/07/08 23:33:24;;;;;;;0.77;0.32;;;17.50;99.90;;;;;;10185007;29;20067;-86
2022/07/08 23:38:25;;;;;;;0.93;0.40;;;17.50;99.90;;;;;;10189661;29;20052;-86
2022/07/08 23:43:27;;;;;;;1.63;0.30;;;17.30;99.90;;;;;;10185819;29;20052;-86
2022/07/08 23:48:29;;;;;;;1.88;0.30;;;17.30;99.90;;;;;;10169227;29;20138;-87
2022/07/08 23:53:36;;;;;;;4.35;0.40;;;17.20;99.90;;;;;;10157282;29;20080;-87
2022/07/08 23:58:38;;;;;;;1.05;0.30;;;17.10;99.90;;;;;;10166151;29;20074;-86
